Latest Weather Observations for Nowra

IDN60901

Issued at 6:41 pm EST Thursday 3 September 2015 (issued every 10 minutes, with the page automatically refreshed every 10 minutes)

About weather observations | Map of Canberra area stations | Latest observations for Canberra area | Other Formats
Station Details ID: 068072 Name: NOWRA RAN AIR STATION AWS Lat: -34.95 Lon: 150.54 Height: 109.0 m
Data from the previous 72 hours. | See also: Recent months at Nowra
Date/Time
EST
Tmp

°C
App
Tmp
°C
Dew
Point
°C
Rel
Hum
%
Delta-T

°C
Wind Press
QNH
hPa
Press
MSL
hPa
Rain
since
9 am
mm
Dir
 
Spd
km/h
Gust
km/h
Spd
kts
Gust
kts
03/06:30pm 13.1 9.0 8.8 75 2.2 SSW 20 30 11 16 1011.4 - 1.4
03/06:00pm 13.7 8.6 9.2 74 2.3 SSW 26 35 14 19 1010.4 1010.4 1.4
03/05:30pm 13.6 9.3 9.5 76 2.1 SW 22 32 12 17 1009.5 - 1.4
03/05:00pm 13.5 11.0 11.0 85 1.3 W 15 26 8 14 1008.9 - 1.4
03/04:30pm 13.3 11.0 11.9 91 0.8 WSW 15 19 8 10 1008.5 - 1.4
03/04:00pm 13.4 11.7 12.3 93 0.6 SW 13 20 7 11 1008.1 - 1.4
03/03:30pm 13.3 11.5 12.0 92 0.7 SW 13 15 7 8 1007.6 - 1.2
03/03:00pm 13.4 10.3 12.1 92 0.7 SW 20 26 11 14 1007.1 1007.0 1.0
03/02:30pm 15.6 10.8 8.8 64 3.5 SSW 24 28 13 15 1006.2 - 0.0
03/02:00pm 17.3 12.1 7.4 52 5.0 WSW 24 35 13 19 1005.6 - 0.0
03/01:30pm 17.8 12.9 7.0 49 5.4 W 22 30 12 16 1005.1 - 0.0
03/01:00pm 17.8 11.3 6.3 47 5.7 W 30 39 16 21 1005.0 - 0.0
03/12:30pm 18.5 12.4 6.4 45 6.0 W 28 43 15 23 1005.1 - 0.0
03/12:00pm 17.8 11.8 7.0 49 5.4 W 28 41 15 22 1005.1 1005.0 0.0
03/11:30am 17.4 12.2 7.2 51 5.1 W 24 35 13 19 1005.4 - 0.0
03/11:00am 16.9 12.4 8.6 58 4.3 W 22 33 12 18 1005.6 - 0.0
03/10:30am 16.2 11.7 8.7 61 3.9 W 22 33 12 18 1005.8 - 0.0
03/10:00am 15.6 11.7 9.3 66 3.3 W 20 30 11 16 1005.7 - 0.0
03/09:30am 15.4 11.4 8.9 65 3.3 WNW 20 30 11 16 1005.7 - 0.0
03/09:00am 14.4 10.6 9.8 74 2.4 W 20 30 11 16 1005.8 1005.7 6.6
03/08:30am 12.6 10.5 11.0 90 0.8 NNW 13 17 7 9 1005.5 - 6.6
03/08:00am 11.1 8.8 10.5 96 0.3 NW 13 17 7 9 1005.4 - 6.6
03/07:30am 10.2 7.8 10.0 99 0.1 NW 13 15 7 8 1005.1 - 6.6
03/07:00am 9.6 7.4 9.5 99 0.0 NW 11 15 6 8 1004.7 - 6.6
03/06:30am 9.4 7.6 9.3 99 0.0 WNW 9 11 5 6 1004.4 - 6.6
03/06:00am 9.7 6.8 9.6 99 0.1 WNW 15 17 8 9 1004.3 1004.2 6.6
03/05:30am 9.7 9.3 9.6 99 0.1 WNW 2 7 1 4 1004.6 - 6.6
03/05:00am 9.6 7.8 9.6 100 0.0 WSW 9 11 5 6 1004.8 - 6.6
03/04:30am 9.4 6.8 9.3 99 0.0 W 13 15 7 8 1004.9 - 6.6
03/04:00am 9.7 9.7 9.7 100 0.0 CALM 0 0 0 0 1005.1 - 6.6
03/03:30am 9.8 9.8 9.8 100 0.0 CALM 0 6 0 3 1004.9 - 6.6
03/03:00am 9.9 8.2 9.9 100 0.0 SW 9 11 5 6 1005.4 1005.3 6.6
03/02:30am 10.1 10.1 9.9 99 0.1 CALM 0 0 0 0 1006.1 - 6.6
03/02:00am 10.3 10.4 10.1 99 0.1 CALM 0 0 0 0 1007.0 - 6.4
03/01:30am 10.2 10.3 10.0 99 0.1 CALM 0 6 0 3 1007.7 - 5.4
03/01:22am 10.2 9.1 10.0 99 0.1 NNW 6 9 3 5 1007.9 - 5.4
03/01:01am 10.4 8.4 10.1 98 0.2 N 11 11 6 6 1008.5 - 4.6
03/01:00am 10.4 8.4 10.1 98 0.2 N 11 11 6 6 1008.6 - 4.6
03/12:59am 10.4 8.4 10.1 98 0.2 N 11 11 6 6 1008.6 - 4.6
03/12:34am 10.9 9.6 10.1 95 0.4 WNW 7 9 4 5 1008.5 - 2.6
03/12:30am 10.9 9.6 10.0 94 0.5 WNW 7 9 4 5 1008.4 - 2.0
03/12:00am 11.3 8.7 9.2 87 1.1 W 13 19 7 10 1008.6 1008.6 0.2
 
Date/Time
EST
Tmp

°C
App
Tmp
°C
Dew
Point
°C
Rel
Hum
%
Delta-T

°C
Wind Press
QNH
hPa
Press
MSL
hPa
Rain
since
9 am
mm
Dir
 
Spd
km/h
Gust
km/h
Spd
kts
Gust
kts
02/11:30pm 11.6 7.6 8.3 80 1.6 WNW 19 24 10 13 1009.1 - 0.0
02/11:00pm 11.4 9.8 8.6 83 1.4 SW 7 9 4 5 1007.7 - 0.0
02/10:30pm 11.5 10.1 8.9 84 1.3 WSW 6 7 3 4 1007.9 - 0.0
02/10:00pm 11.8 9.2 9.5 86 1.2 W 13 17 7 9 1008.6 - 0.0
02/09:30pm 11.4 10.6 9.5 88 1.0 SW 4 7 2 4 1008.7 - 0.0
02/09:00pm 10.8 10.9 10.2 96 0.3 CALM 0 0 0 0 1009.3 1009.3 0.0
02/08:30pm 10.3 10.3 9.8 97 0.3 CALM 0 9 0 5 1009.3 - 0.0
02/08:00pm 10.3 10.2 9.5 95 0.4 CALM 0 0 0 0 1009.9 - 0.0
02/07:30pm 9.6 9.4 9.0 96 0.3 CALM 0 0 0 0 1009.9 - 0.0
02/07:00pm 10.0 9.8 9.1 94 0.4 CALM 0 0 0 0 1010.1 - 0.0
02/06:30pm 10.3 9.8 7.9 85 1.2 CALM 0 0 0 0 1010.0 - 0.0
02/06:00pm 13.6 13.3 8.7 72 2.5 CALM 0 0 0 0 1010.1 1010.1 0.0
02/05:30pm 14.4 12.8 7.9 65 3.2 ESE 6 9 3 5 1010.0 - 0.0
02/05:00pm 16.1 13.2 8.1 59 4.1 NE 13 17 7 9 1010.1 - 0.0
02/04:30pm 17.0 13.3 7.9 55 4.6 NE 17 22 9 12 1010.2 - 0.0
02/04:00pm 18.1 14.6 8.7 54 4.9 ENE 17 22 9 12 1010.4 - 0.0
02/03:30pm 17.5 13.7 8.9 57 4.5 ENE 19 24 10 13 1010.4 - 0.0
02/03:00pm 18.7 14.4 7.8 49 5.6 ENE 20 26 11 14 1010.5 1010.5 0.0
02/02:30pm 19.2 15.9 6.3 43 6.4 ENE 13 20 7 11 1010.9 - 0.0
02/02:00pm 19.1 14.8 3.3 35 7.4 NNE 15 20 8 11 1011.4 - 0.0
02/01:30pm 18.8 14.2 1.3 31 7.9 NNE 15 20 8 11 1011.8 - 0.0
02/01:00pm 18.4 13.7 3.1 36 7.1 NE 17 20 9 11 1012.4 - 0.0
02/12:30pm 18.4 14.9 3.5 37 7.0 NNE 11 15 6 8 1013.1 - 0.0
02/12:00pm 17.8 13.4 2.5 36 7.0 N 15 20 8 11 1013.9 1013.8 0.0
02/11:30am 17.1 13.3 4.1 42 6.1 NNW 13 19 7 10 1014.7 - 0.0
02/11:00am 16.2 11.4 4.6 46 5.5 NNW 19 26 10 14 1015.3 - 0.0
02/10:30am 15.1 11.0 4.2 48 5.1 NNW 15 20 8 11 1015.7 - 0.0
02/10:00am 14.5 10.1 4.8 52 4.5 NW 17 24 9 13 1016.1 - 0.0
02/09:30am 13.4 7.8 5.3 58 3.8 NW 24 30 13 16 1016.5 - 0.0
02/09:00am 12.2 7.4 4.9 61 3.4 NW 19 26 10 14 1016.6 1016.5 0.0
02/08:30am 11.0 6.0 4.7 65 2.9 NW 20 28 11 15 1016.8 - 0.0
02/08:00am 9.9 5.1 5.5 74 2.0 NW 20 26 11 14 1016.5 - 0.0
02/07:30am 8.2 3.4 4.8 79 1.5 NW 19 22 10 12 1016.6 - 0.0
02/07:00am 8.1 3.1 4.7 79 1.5 WNW 20 24 11 13 1016.5 - 0.0
02/06:30am 7.2 2.1 4.3 82 1.3 NW 20 24 11 13 1016.5 - 0.0
02/06:00am 7.1 3.4 4.4 83 1.2 WNW 13 17 7 9 1016.2 1016.1 0.0
02/05:30am 7.3 2.2 4.3 81 1.3 NW 20 26 11 14 1015.9 - 0.0
02/05:00am 7.4 3.0 4.5 82 1.3 NW 17 20 9 11 1015.5 - 0.0
02/04:30am 7.8 2.4 4.4 79 1.5 NW 22 28 12 15 1015.8 - 0.0
02/04:00am 7.7 2.9 4.5 80 1.4 NW 19 24 10 13 1015.8 - 0.0
02/03:30am 7.7 2.7 4.5 80 1.4 NW 20 24 11 13 1015.8 - 0.0
02/03:00am 7.0 3.0 5.0 87 0.9 NW 15 19 8 10 1016.0 1015.9 0.0
02/02:30am 4.3 1.7 4.2 99 0.0 WNW 7 9 4 5 1016.2 - 0.0
02/02:00am 4.7 2.4 4.6 99 0.0 W 6 9 3 5 1016.2 - 0.0
02/01:30am 4.7 2.9 3.5 92 0.5 WSW 2 6 1 3 1016.5 - 0.0
02/01:00am 5.9 3.0 4.9 93 0.4 W 9 11 5 6 1016.7 - 0.0
02/12:30am 5.9 3.5 5.3 96 0.3 W 7 9 4 5 1016.4 - 0.0
02/12:00am 5.4 4.2 4.8 96 0.3 CALM 0 0 0 0 1016.4 1016.3 0.0
 
Date/Time
EST
Tmp

°C
App
Tmp
°C
Dew
Point
°C
Rel
Hum
%
Delta-T

°C
Wind Press
QNH
hPa
Press
MSL
hPa
Rain
since
9 am
mm
Dir
 
Spd
km/h
Gust
km/h
Spd
kts
Gust
kts
01/11:30pm 5.4 4.2 4.5 94 0.4 CALM 0 0 0 0 1016.2 - 0.0
01/11:00pm 6.5 5.4 5.0 90 0.7 CALM 0 0 0 0 1016.1 - 0.0
01/10:30pm 7.2 4.5 5.7 90 0.7 W 9 13 5 7 1016.1 - 0.0
01/10:00pm 6.9 4.7 5.4 90 0.7 NNW 6 7 3 4 1015.9 - 0.0
01/09:30pm 7.0 4.7 5.5 90 0.7 WNW 7 15 4 8 1015.9 - 0.0
01/09:00pm 7.4 4.7 5.7 89 0.8 WSW 9 13 5 7 1015.7 1015.6 0.0
01/08:30pm 8.1 5.9 6.1 87 0.9 W 7 13 4 7 1015.5 - 0.0
01/08:00pm 7.9 5.0 6.5 91 0.6 W 11 13 6 7 1015.3 - 0.0
01/07:30pm 8.2 5.5 5.8 85 1.1 W 9 11 5 6 1015.0 - 0.0
01/07:00pm 8.5 7.7 6.3 86 1.0 CALM 0 2 0 1 1014.8 - 0.0
01/06:30pm 8.1 6.0 5.9 86 1.0 SSW 6 7 3 4 1014.3 - 0.0
01/06:00pm 9.7 8.7 5.7 76 1.8 CALM 0 0 0 0 1014.0 1013.9 0.0
01/05:30pm 12.6 9.8 5.3 61 3.4 SE 9 17 5 9 1013.6 - 0.0
01/05:00pm 14.2 11.2 4.2 51 4.6 ESE 9 11 5 6 1013.4 - 0.0
01/04:30pm 15.1 11.7 3.9 47 5.2 E 11 13 6 7 1013.1 - 0.0
01/04:00pm 15.4 11.1 3.2 44 5.6 ESE 15 19 8 10 1012.8 - 0.0
01/03:30pm 16.3 11.8 4.0 44 5.7 ESE 17 20 9 11 1012.7 - 0.0
01/03:00pm 16.7 12.1 3.7 42 6.1 SE 17 20 9 11 1012.6 1012.6 0.0
01/02:30pm 17.4 12.6 4.4 42 6.2 ESE 19 24 10 13 1012.5 - 0.0
01/02:00pm 18.2 14.2 2.9 36 7.1 W 13 19 7 10 1012.5 - 0.0
01/01:30pm 17.9 14.8 3.8 39 6.6 WSW 9 17 5 9 1012.8 - 0.0
01/01:00pm 17.1 14.7 4.4 43 6.0 SSW 6 15 3 8 1013.3 - 0.0
01/12:30pm 16.2 13.4 2.9 41 6.1 SW 7 13 4 7 1013.8 - 0.0
01/12:00pm 15.7 11.6 2.2 40 6.0 W 13 26 7 14 1014.3 1014.2 0.0
01/11:30am 15.1 11.0 2.3 42 5.7 WSW 13 20 7 11 1014.7 - 0.0
01/11:00am 14.4 11.3 3.5 48 5.0 NW 9 22 5 12 1014.9 - 0.0
01/10:30am 14.3 10.5 3.7 49 4.8 W 13 19 7 10 1015.1 - 0.0
01/10:00am 13.5 9.0 4.4 54 4.2 W 17 20 9 11 1015.3 - 0.0
01/09:30am 13.0 8.2 4.9 58 3.8 W 19 26 10 14 1015.3 - 0.0
01/09:00am 12.1 6.9 5.5 64 3.1 W 22 28 12 15 1015.4 1015.3 0.0
01/08:30am 10.8 5.1 4.7 66 2.8 W 24 28 13 15 1015.6 - 0.0
01/08:00am 10.0 5.1 5.2 72 2.2 W 20 28 11 15 1015.5 - 0.0
01/07:30am 8.8 4.0 4.4 74 1.9 WNW 19 24 10 13 1015.5 - 0.0
01/07:00am 7.9 3.1 4.7 80 1.4 W 19 26 10 14 1015.3 - 0.0
01/06:30am 7.3 2.8 4.4 82 1.3 WNW 17 20 9 11 1014.8 - 0.0
01/06:00am 6.9 2.5 4.6 85 1.0 WNW 17 22 9 12 1014.6 1014.5 0.0
01/05:30am 7.3 2.3 4.8 84 1.1 WNW 20 26 11 14 1014.4 - 0.0
01/05:00am 7.7 3.3 4.7 81 1.3 W 17 19 9 10 1014.2 - 0.0
01/04:30am 6.9 2.3 5.5 91 0.6 WSW 19 20 10 11 1014.2 - 0.0
01/04:00am 6.7 3.5 5.3 91 0.6 WNW 11 13 6 7 1014.3 - 0.0
01/03:30am 6.3 3.4 4.6 89 0.7 SW 9 9 5 5 1014.5 - 0.0
01/03:00am 7.6 4.5 5.4 86 1.0 NW 11 15 6 8 1014.3 1014.2 0.0
01/02:30am 8.1 4.5 5.2 82 1.3 NW 13 15 7 8 1014.3 - 0.0
01/02:00am 8.5 5.3 5.3 80 1.4 NW 11 15 6 8 1014.7 - 0.0
01/01:30am 9.7 7.1 6.1 78 1.7 WNW 9 11 5 6 1015.0 - 0.0
01/01:00am 10.5 7.6 6.3 75 2.0 WNW 11 15 6 8 1015.3 - 0.0
01/12:30am 10.4 7.1 6.5 77 1.8 WNW 13 17 7 9 1015.3 - 0.0
01/12:00am 10.1 7.4 7.2 82 1.4 WNW 11 13 6 7 1015.5 1015.4 0.0
 
Date/Time
EST
Tmp

°C
App
Tmp
°C
Dew
Point
°C
Rel
Hum
%
Delta-T

°C
Wind Press
QNH
hPa
Press
MSL
hPa
Rain
since
9 am
mm
Dir
 
Spd
km/h
Gust
km/h
Spd
kts
Gust
kts
31/11:30pm 8.8 6.9 7.7 93 0.5 WNW 7 9 4 5 1015.4 - 0.0
31/11:00pm 9.3 7.9 7.3 87 0.9 W 4 7 2 4 1015.5 - 0.0
31/10:30pm 10.4 8.6 8.0 85 1.2 SSW 7 11 4 6 1015.5 - 0.0
31/10:00pm 10.8 8.3 8.2 84 1.3 W 11 13 6 7 1015.5 - 0.0
31/09:30pm 10.9 8.0 8.0 82 1.4 W 13 17 7 9 1015.6 - 0.0
31/09:00pm 11.7 8.0 8.0 78 1.8 W 17 20 9 11 1015.5 1015.5 0.0
31/08:30pm 11.4 7.8 8.3 81 1.5 W 17 19 9 10 1015.4 - 0.0
31/08:00pm 11.1 7.9 8.5 84 1.3 W 15 17 8 9 1015.5 - 0.0
31/07:30pm 10.4 8.4 8.5 88 0.9 W 9 11 5 6 1015.3 - 0.0
31/07:00pm 9.6 7.4 8.0 90 0.8 W 9 11 5 6 1015.1 - 0.0

Latest Capital City Observations: Canberra | Sydney | Melbourne | Brisbane | Adelaide | Perth | Hobart | Darwin

Other Formats:

Comma delimited format used in spreadsheet applications
http://www.bom.gov.au/fwo/IDN60903/IDN60903.94750.axf

JavaScript Object Notation format (JSON) in row-major order
http://www.bom.gov.au/fwo/IDN60903/IDN60903.94750.json